sensor_id;sensor_type;location;lat;lon;timestamp;P1;durP1;ratioP1;P2;durP2;ratioP2
31238;SDS011;17871;31.584;74.450;2022-11-15T00:01:16;123.78;;;59.58;;
31238;SDS011;17871;31.584;74.450;2022-11-15T00:04:05;130.85;;;60.80;;
31238;SDS011;17871;31.584;74.450;2022-11-15T00:06:53;138.40;;;61.13;;
31238;SDS011;17871;31.584;74.450;2022-11-15T00:09:40;145.32;;;64.88;;
31238;SDS011;17871;31.584;74.450;2022-11-15T00:12:30;157.38;;;68.10;;
31238;SDS011;17871;31.584;74.450;2022-11-15T00:15:17;175.73;;;74.22;;
31238;SDS011;17871;31.584;74.450;2022-11-15T00:18:05;159.13;;;70.93;;
31238;SDS011;17871;31.584;74.450;2022-11-15T00:20:53;170.43;;;76.55;;
31238;SDS011;17871;31.584;74.450;2022-11-15T00:23:41;215.32;;;82.40;;
31238;SDS011;17871;31.584;74.450;2022-11-15T00:26:28;192.93;;;80.82;;
31238;SDS011;17871;31.584;74.450;2022-11-15T00:29:16;190.43;;;80.15;;
31238;SDS011;17871;31.584;74.450;2022-11-15T00:32:04;175.48;;;75.22;;
31238;SDS011;17871;31.584;74.450;2022-11-15T00:34:52;175.38;;;76.78;;
31238;SDS011;17871;31.584;74.450;2022-11-15T00:37:39;173.93;;;77.57;;
31238;SDS011;17871;31.584;74.450;2022-11-15T00:40:26;159.10;;;69.57;;
31238;SDS011;17871;31.584;74.450;2022-11-15T00:43:14;165.52;;;71.93;;
31238;SDS011;17871;31.584;74.450;2022-11-15T00:46:02;184.82;;;78.78;;
31238;SDS011;17871;31.584;74.450;2022-11-15T00:48:49;209.57;;;86.43;;
31238;SDS011;17871;31.584;74.450;2022-11-15T00:51:37;217.10;;;88.82;;
31238;SDS011;17871;31.584;74.450;2022-11-15T00:54:24;198.48;;;87.57;;
31238;SDS011;17871;31.584;74.450;2022-11-15T00:57:12;218.23;;;93.65;;
31238;SDS011;17871;31.584;74.450;2022-11-15T00:59:59;221.02;;;94.63;;
31238;SDS011;17871;31.584;74.450;2022-11-15T01:02:48;214.50;;;90.32;;
31238;SDS011;17871;31.584;74.450;2022-11-15T01:05:40;188.75;;;83.03;;
31238;SDS011;17871;31.584;74.450;2022-11-15T01:08:30;198.23;;;86.18;;
31238;SDS011;17871;31.584;74.450;2022-11-15T01:11:20;171.10;;;76.40;;
31238;SDS011;17871;31.584;74.450;2022-11-15T01:14:15;162.65;;;69.97;;
31238;SDS011;17871;31.584;74.450;2022-11-15T01:17:10;161.20;;;68.18;;
31238;SDS011;17871;31.584;74.450;2022-11-15T01:19:59;145.32;;;64.78;;
31238;SDS011;17871;31.584;74.450;2022-11-15T01:22:47;146.60;;;61.05;;
31238;SDS011;17871;31.584;74.450;2022-11-15T01:25:35;137.40;;;57.83;;
31238;SDS011;17871;31.584;74.450;2022-11-15T01:28:23;124.93;;;66.43;;
31238;SDS011;17871;31.584;74.450;2022-11-15T01:31:12;107.80;;;53.10;;
31238;SDS011;17871;31.584;74.450;2022-11-15T01:34:01;96.75;;;47.72;;
31238;SDS011;17871;31.584;74.450;2022-11-15T01:36:50;96.47;;;41.85;;
31238;SDS011;17871;31.584;74.450;2022-11-15T01:39:38;98.22;;;46.92;;
31238;SDS011;17871;31.584;74.450;2022-11-15T01:42:26;79.80;;;40.72;;
31238;SDS011;17871;31.584;74.450;2022-11-15T01:45:14;75.68;;;36.22;;
31238;SDS011;17871;31.584;74.450;2022-11-15T01:48:03;81.25;;;37.88;;
31238;SDS011;17871;31.584;74.450;2022-11-15T01:50:55;83.45;;;39.95;;
31238;SDS011;17871;31.584;74.450;2022-11-15T01:53:45;106.38;;;49.05;;
31238;SDS011;17871;31.584;74.450;2022-11-15T01:56:40;135.00;;;56.40;;
31238;SDS011;17871;31.584;74.450;2022-11-15T01:59:39;119.57;;;55.42;;
31238;SDS011;17871;31.584;74.450;2022-11-15T02:02:32;122.97;;;57.42;;
31238;SDS011;17871;31.584;74.450;2022-11-15T02:05:21;123.45;;;58.22;;
31238;SDS011;17871;31.584;74.450;2022-11-15T02:08:09;120.38;;;53.22;;
31238;SDS011;17871;31.584;74.450;2022-11-15T02:11:10;132.27;;;56.45;;
31238;SDS011;17871;31.584;74.450;2022-11-15T02:13:59;111.05;;;51.67;;
31238;SDS011;17871;31.584;74.450;2022-11-15T02:17:02;116.13;;;53.03;;
31238;SDS011;17871;31.584;74.450;2022-11-15T02:23:21;103.10;;;46.78;;
31238;SDS011;17871;31.584;74.450;2022-11-15T02:32:24;99.55;;;47.63;;
31238;SDS011;17871;31.584;74.450;2022-11-15T02:35:41;91.45;;;43.58;;
31238;SDS011;17871;31.584;74.450;2022-11-15T02:42:07;282.00;;;50.28;;
31238;SDS011;17871;31.584;74.450;2022-11-15T02:45:28;91.68;;;40.33;;
31238;SDS011;17871;31.584;74.450;2022-11-15T02:48:19;94.55;;;39.10;;
31238;SDS011;17871;31.584;74.450;2022-11-15T02:51:10;98.20;;;41.28;;
31238;SDS011;17871;31.584;74.450;2022-11-15T02:53:59;84.13;;;39.05;;
31238;SDS011;17871;31.584;74.450;2022-11-15T02:56:47;97.28;;;40.03;;
31238;SDS011;17871;31.584;74.450;2022-11-15T03:00:22;80.80;;;37.72;;
31238;SDS011;17871;31.584;74.450;2022-11-15T03:06:20;77.15;;;36.00;;
31238;SDS011;17871;31.584;74.450;2022-11-15T03:09:33;77.25;;;35.17;;
31238;SDS011;17871;31.584;74.450;2022-11-15T03:12:24;74.80;;;35.08;;
31238;SDS011;17871;31.584;74.450;2022-11-15T03:15:32;65.85;;;30.42;;
31238;SDS011;17871;31.584;74.450;2022-11-15T03:18:43;59.90;;;29.92;;
31238;SDS011;17871;31.584;74.450;2022-11-15T03:21:40;54.35;;;26.02;;
31238;SDS011;17871;31.584;74.450;2022-11-15T03:24:29;63.75;;;31.13;;
31238;SDS011;17871;31.584;74.450;2022-11-15T03:27:20;74.05;;;30.98;;
31238;SDS011;17871;31.584;74.450;2022-11-15T03:30:11;69.05;;;29.75;;
31238;SDS011;17871;31.584;74.450;2022-11-15T03:33:01;70.32;;;27.52;;
31238;SDS011;17871;31.584;74.450;2022-11-15T03:35:52;64.53;;;25.77;;
31238;SDS011;17871;31.584;74.450;2022-11-15T03:38:41;56.08;;;26.70;;
31238;SDS011;17871;31.584;74.450;2022-11-15T03:50:55;59.67;;;22.25;;
31238;SDS011;17871;31.584;74.450;2022-11-15T03:53:45;52.80;;;23.20;;
31238;SDS011;17871;31.584;74.450;2022-11-15T03:56:33;53.08;;;22.23;;
31238;SDS011;17871;31.584;74.450;2022-11-15T03:59:22;46.28;;;23.10;;
31238;SDS011;17871;31.584;74.450;2022-11-15T04:02:11;72.70;;;23.58;;
31238;SDS011;17871;31.584;74.450;2022-11-15T04:05:00;49.67;;;23.23;;
31238;SDS011;17871;31.584;74.450;2022-11-15T04:07:51;61.15;;;24.05;;
31238;SDS011;17871;31.584;74.450;2022-11-15T04:10:39;51.17;;;24.85;;
31238;SDS011;17871;31.584;74.450;2022-11-15T04:13:28;57.80;;;23.23;;
31238;SDS011;17871;31.584;74.450;2022-11-15T04:16:17;51.90;;;23.15;;
31238;SDS011;17871;31.584;74.450;2022-11-15T04:19:05;45.70;;;23.35;;
31238;SDS011;17871;31.584;74.450;2022-11-15T04:22:12;42.03;;;20.98;;
31238;SDS011;17871;31.584;74.450;2022-11-15T04:25:18;46.45;;;23.55;;
31238;SDS011;17871;31.584;74.450;2022-11-15T04:28:10;36.63;;;19.35;;
31238;SDS011;17871;31.584;74.450;2022-11-15T04:30:58;62.90;;;32.30;;
31238;SDS011;17871;31.584;74.450;2022-11-15T04:33:46;60.75;;;30.77;;
31238;SDS011;17871;31.584;74.450;2022-11-15T04:36:35;53.78;;;24.98;;
31238;SDS011;17871;31.584;74.450;2022-11-15T04:39:41;62.08;;;32.00;;
31238;SDS011;17871;31.584;74.450;2022-11-15T04:42:29;77.68;;;36.65;;
31238;SDS011;17871;31.584;74.450;2022-11-15T04:45:18;64.25;;;32.38;;
31238;SDS011;17871;31.584;74.450;2022-11-15T04:48:06;48.60;;;25.95;;
31238;SDS011;17871;31.584;74.450;2022-11-15T04:50:54;50.70;;;28.17;;
31238;SDS011;17871;31.584;74.450;2022-11-15T04:53:42;55.78;;;25.38;;
31238;SDS011;17871;31.584;74.450;2022-11-15T04:56:30;59.30;;;28.40;;
31238;SDS011;17871;31.584;74.450;2022-11-15T04:59:18;65.22;;;29.83;;
31238;SDS011;17871;31.584;74.450;2022-11-15T05:02:06;62.65;;;27.67;;
31238;SDS011;17871;31.584;74.450;2022-11-15T05:04:53;49.90;;;25.58;;
31238;SDS011;17871;31.584;74.450;2022-11-15T05:07:48;71.65;;;29.30;;
31238;SDS011;17871;31.584;74.450;2022-11-15T05:10:37;67.32;;;34.47;;
31238;SDS011;17871;31.584;74.450;2022-11-15T05:13:25;68.05;;;33.05;;
31238;SDS011;17871;31.584;74.450;2022-11-15T05:16:17;53.88;;;27.52;;
31238;SDS011;17871;31.584;74.450;2022-11-15T05:19:05;56.53;;;27.83;;
31238;SDS011;17871;31.584;74.450;2022-11-15T05:21:53;63.33;;;30.75;;
31238;SDS011;17871;31.584;74.450;2022-11-15T05:24:41;69.35;;;31.98;;
31238;SDS011;17871;31.584;74.450;2022-11-15T05:27:29;81.03;;;35.15;;
31238;SDS011;17871;31.584;74.450;2022-11-15T05:30:17;86.65;;;36.80;;
31238;SDS011;17871;31.584;74.450;2022-11-15T05:33:05;71.55;;;35.92;;
31238;SDS011;17871;31.584;74.450;2022-11-15T05:36:36;58.90;;;31.42;;
31238;SDS011;17871;31.584;74.450;2022-11-15T05:39:22;89.32;;;40.33;;
31238;SDS011;17871;31.584;74.450;2022-11-15T05:42:10;91.03;;;42.10;;
31238;SDS011;17871;31.584;74.450;2022-11-15T05:44:59;81.32;;;36.88;;
31238;SDS011;17871;31.584;74.450;2022-11-15T05:47:53;79.03;;;33.35;;
31238;SDS011;17871;31.584;74.450;2022-11-15T05:50:45;75.00;;;34.30;;
31238;SDS011;17871;31.584;74.450;2022-11-15T05:53:34;72.07;;;33.70;;
31238;SDS011;17871;31.584;74.450;2022-11-15T05:56:24;74.32;;;35.70;;
31238;SDS011;17871;31.584;74.450;2022-11-15T05:59:13;70.35;;;34.22;;
31238;SDS011;17871;31.584;74.450;2022-11-15T06:02:00;71.25;;;32.38;;
31238;SDS011;17871;31.584;74.450;2022-11-15T06:04:48;61.45;;;25.95;;
31238;SDS011;17871;31.584;74.450;2022-11-15T06:07:36;68.47;;;26.95;;
31238;SDS011;17871;31.584;74.450;2022-11-15T06:10:24;68.03;;;32.00;;
31238;SDS011;17871;31.584;74.450;2022-11-15T06:13:12;64.43;;;29.05;;
31238;SDS011;17871;31.584;74.450;2022-11-15T06:16:00;66.65;;;26.77;;
31238;SDS011;17871;31.584;74.450;2022-11-15T06:18:47;58.15;;;23.55;;
31238;SDS011;17871;31.584;74.450;2022-11-15T06:21:35;56.72;;;23.80;;
31238;SDS011;17871;31.584;74.450;2022-11-15T06:24:23;52.42;;;24.75;;
31238;SDS011;17871;31.584;74.450;2022-11-15T06:27:15;47.05;;;22.02;;
31238;SDS011;17871;31.584;74.450;2022-11-15T06:30:03;43.95;;;20.00;;
31238;SDS011;17871;31.584;74.450;2022-11-15T06:32:51;43.63;;;19.45;;
31238;SDS011;17871;31.584;74.450;2022-11-15T06:35:47;39.97;;;20.45;;
31238;SDS011;17871;31.584;74.450;2022-11-15T06:38:34;46.28;;;19.98;;
31238;SDS011;17871;31.584;74.450;2022-11-15T06:41:23;41.80;;;21.08;;
31238;SDS011;17871;31.584;74.450;2022-11-15T06:44:14;49.65;;;21.88;;
31238;SDS011;17871;31.584;74.450;2022-11-15T06:47:03;55.35;;;22.25;;
31238;SDS011;17871;31.584;74.450;2022-11-15T06:49:50;47.28;;;22.33;;
31238;SDS011;17871;31.584;74.450;2022-11-15T06:52:38;47.10;;;22.10;;
31238;SDS011;17871;31.584;74.450;2022-11-15T06:55:26;50.05;;;21.52;;
31238;SDS011;17871;31.584;74.450;2022-11-15T06:58:15;43.92;;;21.05;;
31238;SDS011;17871;31.584;74.450;2022-11-15T07:01:04;41.05;;;21.65;;
31238;SDS011;17871;31.584;74.450;2022-11-15T07:03:54;48.75;;;22.38;;
31238;SDS011;17871;31.584;74.450;2022-11-15T07:06:41;54.28;;;22.40;;
31238;SDS011;17871;31.584;74.450;2022-11-15T07:09:29;47.92;;;22.75;;
31238;SDS011;17871;31.584;74.450;2022-11-15T07:12:17;64.18;;;25.75;;
31238;SDS011;17871;31.584;74.450;2022-11-15T07:15:05;47.30;;;22.50;;
31238;SDS011;17871;31.584;74.450;2022-11-15T07:17:53;40.05;;;20.20;;
31238;SDS011;17871;31.584;74.450;2022-11-15T07:20:41;41.03;;;23.67;;
31238;SDS011;17871;31.584;74.450;2022-11-15T07:23:29;50.65;;;24.52;;
31238;SDS011;17871;31.584;74.450;2022-11-15T07:26:18;57.85;;;24.63;;
31238;SDS011;17871;31.584;74.450;2022-11-15T07:29:07;51.95;;;26.73;;
31238;SDS011;17871;31.584;74.450;2022-11-15T07:31:55;53.45;;;23.38;;
31238;SDS011;17871;31.584;74.450;2022-11-15T07:34:42;52.88;;;25.67;;
31238;SDS011;17871;31.584;74.450;2022-11-15T07:37:31;53.08;;;24.05;;
31238;SDS011;17871;31.584;74.450;2022-11-15T07:40:19;48.15;;;24.50;;
31238;SDS011;17871;31.584;74.450;2022-11-15T07:43:07;56.50;;;23.83;;
31238;SDS011;17871;31.584;74.450;2022-11-15T07:45:55;56.83;;;27.17;;
31238;SDS011;17871;31.584;74.450;2022-11-15T07:48:44;63.88;;;27.08;;
31238;SDS011;17871;31.584;74.450;2022-11-15T07:51:31;70.30;;;29.38;;
31238;SDS011;17871;31.584;74.450;2022-11-15T07:54:19;56.70;;;25.48;;
31238;SDS011;17871;31.584;74.450;2022-11-15T07:57:08;62.92;;;28.08;;
31238;SDS011;17871;31.584;74.450;2022-11-15T07:59:56;61.30;;;25.70;;
31238;SDS011;17871;31.584;74.450;2022-11-15T08:02:43;61.55;;;25.92;;
31238;SDS011;17871;31.584;74.450;2022-11-15T08:05:32;75.80;;;29.85;;
31238;SDS011;17871;31.584;74.450;2022-11-15T08:08:20;58.55;;;27.63;;
31238;SDS011;17871;31.584;74.450;2022-11-15T08:11:08;52.17;;;25.30;;
31238;SDS011;17871;31.584;74.450;2022-11-15T08:13:56;65.25;;;28.75;;
31238;SDS011;17871;31.584;74.450;2022-11-15T08:16:44;62.85;;;28.38;;
31238;SDS011;17871;31.584;74.450;2022-11-15T08:19:32;59.72;;;30.55;;
31238;SDS011;17871;31.584;74.450;2022-11-15T08:22:19;66.70;;;29.67;;
31238;SDS011;17871;31.584;74.450;2022-11-15T08:25:07;71.80;;;32.05;;
31238;SDS011;17871;31.584;74.450;2022-11-15T08:27:57;81.88;;;32.95;;
31238;SDS011;17871;31.584;74.450;2022-11-15T08:30:47;70.45;;;31.15;;
31238;SDS011;17871;31.584;74.450;2022-11-15T08:33:35;71.55;;;31.55;;
31238;SDS011;17871;31.584;74.450;2022-11-15T08:36:22;68.72;;;30.98;;
31238;SDS011;17871;31.584;74.450;2022-11-15T08:39:11;63.83;;;31.08;;
31238;SDS011;17871;31.584;74.450;2022-11-15T08:42:02;71.22;;;33.67;;
31238;SDS011;17871;31.584;74.450;2022-11-15T08:44:50;67.40;;;31.33;;
31238;SDS011;17871;31.584;74.450;2022-11-15T08:47:37;62.60;;;31.77;;
31238;SDS011;17871;31.584;74.450;2022-11-15T08:50:25;63.45;;;29.88;;
31238;SDS011;17871;31.584;74.450;2022-11-15T08:53:13;67.93;;;31.27;;
31238;SDS011;17871;31.584;74.450;2022-11-15T08:56:01;79.13;;;35.30;;
31238;SDS011;17871;31.584;74.450;2022-11-15T08:58:49;63.75;;;32.03;;
31238;SDS011;17871;31.584;74.450;2022-11-15T09:01:37;70.55;;;29.95;;
31238;SDS011;17871;31.584;74.450;2022-11-15T09:04:25;92.07;;;30.80;;
31238;SDS011;17871;31.584;74.450;2022-11-15T09:07:12;56.85;;;29.27;;
31238;SDS011;17871;31.584;74.450;2022-11-15T09:10:00;61.15;;;28.92;;
31238;SDS011;17871;31.584;74.450;2022-11-15T09:12:48;57.65;;;29.23;;
31238;SDS011;17871;31.584;74.450;2022-11-15T09:15:36;66.57;;;31.30;;
31238;SDS011;17871;31.584;74.450;2022-11-15T09:18:24;65.93;;;29.08;;
31238;SDS011;17871;31.584;74.450;2022-11-15T09:21:12;63.72;;;31.38;;
31238;SDS011;17871;31.584;74.450;2022-11-15T09:23:59;77.30;;;32.47;;
31238;SDS011;17871;31.584;74.450;2022-11-15T09:26:49;63.17;;;31.25;;
31238;SDS011;17871;31.584;74.450;2022-11-15T09:29:41;58.97;;;29.52;;
31238;SDS011;17871;31.584;74.450;2022-11-15T09:32:29;59.88;;;29.58;;
31238;SDS011;17871;31.584;74.450;2022-11-15T09:35:24;61.63;;;29.17;;
31238;SDS011;17871;31.584;74.450;2022-11-15T09:38:12;53.95;;;27.30;;
31238;SDS011;17871;31.584;74.450;2022-11-15T09:41:37;62.92;;;28.73;;
31238;SDS011;17871;31.584;74.450;2022-11-15T09:45:17;51.53;;;26.02;;
31238;SDS011;17871;31.584;74.450;2022-11-15T09:47:54;55.63;;;25.63;;
31238;SDS011;17871;31.584;74.450;2022-11-15T09:50:48;61.15;;;26.10;;
31238;SDS011;17871;31.584;74.450;2022-11-15T09:53:41;56.05;;;27.10;;
31238;SDS011;17871;31.584;74.450;2022-11-15T09:56:54;56.70;;;25.92;;
31238;SDS011;17871;31.584;74.450;2022-11-15T10:02:33;52.83;;;24.52;;
31238;SDS011;17871;31.584;74.450;2022-11-15T10:05:16;53.92;;;23.65;;
31238;SDS011;17871;31.584;74.450;2022-11-15T10:10:44;58.17;;;28.90;;
31238;SDS011;17871;31.584;74.450;2022-11-15T10:13:40;59.20;;;28.17;;
31238;SDS011;17871;31.584;74.450;2022-11-15T10:21:40;74.78;;;31.10;;
31238;SDS011;17871;31.584;74.450;2022-11-15T10:24:32;63.50;;;29.40;;
31238;SDS011;17871;31.584;74.450;2022-11-15T10:27:11;60.85;;;25.42;;
31238;SDS011;17871;31.584;74.450;2022-11-15T10:29:46;55.97;;;27.05;;
31238;SDS011;17871;31.584;74.450;2022-11-15T10:32:18;47.97;;;24.55;;
31238;SDS011;17871;31.584;74.450;2022-11-15T10:34:49;54.75;;;28.67;;
31238;SDS011;17871;31.584;74.450;2022-11-15T10:37:29;50.75;;;24.80;;
31238;SDS011;17871;31.584;74.450;2022-11-15T10:40:12;45.50;;;24.92;;
31238;SDS011;17871;31.584;74.450;2022-11-15T10:42:48;56.63;;;25.88;;
31238;SDS011;17871;31.584;74.450;2022-11-15T10:45:38;48.92;;;26.05;;
31238;SDS011;17871;31.584;74.450;2022-11-15T10:50:43;61.03;;;27.10;;
31238;SDS011;17871;31.584;74.450;2022-11-15T10:53:31;66.82;;;28.75;;
31238;SDS011;17871;31.584;74.450;2022-11-15T10:56:11;53.90;;;27.77;;
31238;SDS011;17871;31.584;74.450;2022-11-15T10:58:44;55.50;;;25.90;;
31238;SDS011;17871;31.584;74.450;2022-11-15T11:01:22;50.85;;;24.45;;
31238;SDS011;17871;31.584;74.450;2022-11-15T11:04:03;58.80;;;24.23;;
31238;SDS011;17871;31.584;74.450;2022-11-15T11:06:51;51.33;;;23.17;;
31238;SDS011;17871;31.584;74.450;2022-11-15T11:09:32;51.40;;;25.35;;
31238;SDS011;17871;31.584;74.450;2022-11-15T11:12:05;45.33;;;22.48;;
31238;SDS011;17871;31.584;74.450;2022-11-15T11:14:38;51.88;;;21.85;;
31238;SDS011;17871;31.584;74.450;2022-11-15T11:20:03;47.28;;;19.38;;
31238;SDS011;17871;31.584;74.450;2022-11-15T11:23:01;40.97;;;20.38;;
31238;SDS011;17871;31.584;74.450;2022-11-15T11:36:38;44.72;;;20.15;;
31238;SDS011;17871;31.584;74.450;2022-11-15T11:42:07;43.45;;;18.65;;
31238;SDS011;17871;31.584;74.450;2022-11-15T11:47:09;60.13;;;23.25;;
31238;SDS011;17871;31.584;74.450;2022-11-15T11:50:00;46.17;;;20.10;;
31238;SDS011;17871;31.584;74.450;2022-11-15T11:55:43;54.40;;;22.05;;
31238;SDS011;17871;31.584;74.450;2022-11-15T12:00:59;56.42;;;23.58;;
31238;SDS011;17871;31.584;74.450;2022-11-15T12:10:07;52.22;;;24.70;;
31238;SDS011;17871;31.584;74.450;2022-11-15T12:12:43;58.83;;;25.73;;
31238;SDS011;17871;31.584;74.450;2022-11-15T12:15:19;55.55;;;25.33;;
31238;SDS011;17871;31.584;74.450;2022-11-15T12:17:55;64.00;;;28.60;;
31238;SDS011;17871;31.584;74.450;2022-11-15T12:20:30;64.00;;;27.98;;
31238;SDS011;17871;31.584;74.450;2022-11-15T12:23:06;56.25;;;28.58;;
31238;SDS011;17871;31.584;74.450;2022-11-15T12:25:45;74.20;;;29.83;;
31238;SDS011;17871;31.584;74.450;2022-11-15T12:28:45;77.30;;;33.05;;
31238;SDS011;17871;31.584;74.450;2022-11-15T12:36:50;80.60;;;36.40;;
31238;SDS011;17871;31.584;74.450;2022-11-15T12:39:20;76.93;;;34.08;;
31238;SDS011;17871;31.584;74.450;2022-11-15T12:47:22;70.25;;;32.15;;
31238;SDS011;17871;31.584;74.450;2022-11-15T12:49:53;72.75;;;31.65;;
31238;SDS011;17871;31.584;74.450;2022-11-15T12:52:22;80.57;;;34.58;;
31238;SDS011;17871;31.584;74.450;2022-11-15T12:54:52;75.47;;;33.85;;
31238;SDS011;17871;31.584;74.450;2022-11-15T12:57:27;83.10;;;38.47;;
31238;SDS011;17871;31.584;74.450;2022-11-15T13:03:33;98.65;;;41.15;;
31238;SDS011;17871;31.584;74.450;2022-11-15T13:05:57;110.32;;;44.78;;
31238;SDS011;17871;31.584;74.450;2022-11-15T13:08:46;107.13;;;47.08;;
31238;SDS011;17871;31.584;74.450;2022-11-15T13:19:52;124.15;;;53.38;;
31238;SDS011;17871;31.584;74.450;2022-11-15T13:22:40;119.50;;;56.55;;
31238;SDS011;17871;31.584;74.450;2022-11-15T13:33:45;104.03;;;48.55;;
31238;SDS011;17871;31.584;74.450;2022-11-15T13:36:19;103.95;;;50.17;;
31238;SDS011;17871;31.584;74.450;2022-11-15T13:38:55;104.88;;;46.33;;
31238;SDS011;17871;31.584;74.450;2022-11-15T13:41:28;90.15;;;48.53;;
31238;SDS011;17871;31.584;74.450;2022-11-15T13:44:17;90.68;;;42.90;;
31238;SDS011;17871;31.584;74.450;2022-11-15T13:47:01;83.93;;;38.95;;
31238;SDS011;17871;31.584;74.450;2022-11-15T13:49:34;75.83;;;38.43;;
31238;SDS011;17871;31.584;74.450;2022-11-15T13:52:05;84.13;;;40.30;;
31238;SDS011;17871;31.584;74.450;2022-11-15T13:54:39;85.78;;;41.70;;
31238;SDS011;17871;31.584;74.450;2022-11-15T13:57:41;82.65;;;40.47;;
31238;SDS011;17871;31.584;74.450;2022-11-15T14:03:15;70.60;;;38.33;;
31238;SDS011;17871;31.584;74.450;2022-11-15T14:06:04;87.85;;;42.22;;
31238;SDS011;17871;31.584;74.450;2022-11-15T14:08:35;99.22;;;42.58;;
31238;SDS011;17871;31.584;74.450;2022-11-15T14:11:19;106.40;;;45.75;;
31238;SDS011;17871;31.584;74.450;2022-11-15T14:14:03;89.35;;;41.83;;
31238;SDS011;17871;31.584;74.450;2022-11-15T14:16:40;78.30;;;40.90;;
31238;SDS011;17871;31.584;74.450;2022-11-15T14:19:34;101.95;;;43.38;;
31238;SDS011;17871;31.584;74.450;2022-11-15T14:30:44;108.63;;;48.47;;
31238;SDS011;17871;31.584;74.450;2022-11-15T14:36:03;159.02;;;61.25;;
31238;SDS011;17871;31.584;74.450;2022-11-15T14:38:49;129.52;;;59.78;;
31238;SDS011;17871;31.584;74.450;2022-11-15T14:41:19;149.02;;;62.75;;
31238;SDS011;17871;31.584;74.450;2022-11-15T14:43:50;144.50;;;66.07;;
31238;SDS011;17871;31.584;74.450;2022-11-15T14:46:21;144.13;;;58.20;;
31238;SDS011;17871;31.584;74.450;2022-11-15T14:48:50;117.10;;;55.70;;
31238;SDS011;17871;31.584;74.450;2022-11-15T14:51:19;121.95;;;54.33;;
31238;SDS011;17871;31.584;74.450;2022-11-15T14:53:48;146.02;;;59.60;;
31238;SDS011;17871;31.584;74.450;2022-11-15T14:56:17;147.27;;;58.78;;
31238;SDS011;17871;31.584;74.450;2022-11-15T14:58:46;138.85;;;59.45;;
31238;SDS011;17871;31.584;74.450;2022-11-15T15:01:20;133.20;;;65.45;;
31238;SDS011;17871;31.584;74.450;2022-11-15T15:03:52;141.23;;;60.65;;
31238;SDS011;17871;31.584;74.450;2022-11-15T15:06:28;148.27;;;63.20;;
31238;SDS011;17871;31.584;74.450;2022-11-15T15:08:58;141.90;;;65.13;;
31238;SDS011;17871;31.584;74.450;2022-11-15T15:11:28;148.10;;;63.15;;
31238;SDS011;17871;31.584;74.450;2022-11-15T15:13:59;142.23;;;64.03;;
31238;SDS011;17871;31.584;74.450;2022-11-15T15:16:29;171.63;;;66.13;;
31238;SDS011;17871;31.584;74.450;2022-11-15T15:18:58;144.27;;;67.15;;
31238;SDS011;17871;31.584;74.450;2022-11-15T15:21:27;138.13;;;56.60;;
31238;SDS011;17871;31.584;74.450;2022-11-15T15:24:07;123.20;;;58.97;;
31238;SDS011;17871;31.584;74.450;2022-11-15T15:26:43;124.32;;;56.28;;
31238;SDS011;17871;31.584;74.450;2022-11-15T15:29:12;123.40;;;53.53;;
31238;SDS011;17871;31.584;74.450;2022-11-15T15:31:41;120.50;;;53.15;;
31238;SDS011;17871;31.584;74.450;2022-11-15T15:34:10;108.30;;;51.08;;
31238;SDS011;17871;31.584;74.450;2022-11-15T15:39:12;109.10;;;52.03;;
31238;SDS011;17871;31.584;74.450;2022-11-15T15:41:41;124.85;;;58.25;;
31238;SDS011;17871;31.584;74.450;2022-11-15T15:44:11;133.02;;;59.60;;
31238;SDS011;17871;31.584;74.450;2022-11-15T15:46:40;138.35;;;59.75;;
31238;SDS011;17871;31.584;74.450;2022-11-15T15:49:09;137.52;;;61.10;;
31238;SDS011;17871;31.584;74.450;2022-11-15T15:51:41;129.07;;;58.53;;
31238;SDS011;17871;31.584;74.450;2022-11-15T15:54:12;164.40;;;64.60;;
31238;SDS011;17871;31.584;74.450;2022-11-15T15:56:42;126.10;;;58.60;;
31238;SDS011;17871;31.584;74.450;2022-11-15T15:59:11;135.15;;;59.10;;
31238;SDS011;17871;31.584;74.450;2022-11-15T16:01:41;131.10;;;56.17;;
31238;SDS011;17871;31.584;74.450;2022-11-15T16:04:12;124.70;;;58.95;;
31238;SDS011;17871;31.584;74.450;2022-11-15T16:06:41;127.18;;;57.13;;
31238;SDS011;17871;31.584;74.450;2022-11-15T16:09:14;123.82;;;56.88;;
31238;SDS011;17871;31.584;74.450;2022-11-15T16:11:46;125.63;;;61.80;;
31238;SDS011;17871;31.584;74.450;2022-11-15T16:14:15;129.75;;;64.82;;
31238;SDS011;17871;31.584;74.450;2022-11-15T16:16:44;160.82;;;71.00;;
31238;SDS011;17871;31.584;74.450;2022-11-15T16:19:13;156.70;;;72.70;;
31238;SDS011;17871;31.584;74.450;2022-11-15T16:21:43;183.30;;;81.88;;
31238;SDS011;17871;31.584;74.450;2022-11-15T16:24:12;202.82;;;89.57;;
31238;SDS011;17871;31.584;74.450;2022-11-15T16:26:41;198.93;;;91.32;;
31238;SDS011;17871;31.584;74.450;2022-11-15T16:29:10;209.38;;;94.05;;
31238;SDS011;17871;31.584;74.450;2022-11-15T16:31:39;222.07;;;93.30;;
31238;SDS011;17871;31.584;74.450;2022-11-15T16:34:08;217.48;;;95.70;;
31238;SDS011;17871;31.584;74.450;2022-11-15T16:36:40;214.10;;;95.63;;
31238;SDS011;17871;31.584;74.450;2022-11-15T16:39:12;211.95;;;92.90;;
31238;SDS011;17871;31.584;74.450;2022-11-15T16:41:42;236.95;;;93.00;;
31238;SDS011;17871;31.584;74.450;2022-11-15T16:44:15;199.48;;;90.95;;
31238;SDS011;17871;31.584;74.450;2022-11-15T16:46:44;205.38;;;92.95;;
31238;SDS011;17871;31.584;74.450;2022-11-15T16:49:19;213.70;;;91.05;;
31238;SDS011;17871;31.584;74.450;2022-11-15T16:51:50;204.15;;;94.05;;
31238;SDS011;17871;31.584;74.450;2022-11-15T16:54:19;229.75;;;96.32;;
31238;SDS011;17871;31.584;74.450;2022-11-15T16:56:48;197.27;;;92.55;;
31238;SDS011;17871;31.584;74.450;2022-11-15T16:59:17;193.23;;;88.90;;
31238;SDS011;17871;31.584;74.450;2022-11-15T17:01:48;207.02;;;92.82;;
31238;SDS011;17871;31.584;74.450;2022-11-15T17:04:20;201.80;;;90.47;;
31238;SDS011;17871;31.584;74.450;2022-11-15T17:06:49;213.20;;;94.10;;
31238;SDS011;17871;31.584;74.450;2022-11-15T17:09:19;216.65;;;96.07;;
31238;SDS011;17871;31.584;74.450;2022-11-15T17:11:53;203.02;;;91.78;;
31238;SDS011;17871;31.584;74.450;2022-11-15T17:14:22;199.90;;;93.97;;
31238;SDS011;17871;31.584;74.450;2022-11-15T17:16:51;214.05;;;96.65;;
31238;SDS011;17871;31.584;74.450;2022-11-15T17:19:24;211.20;;;98.93;;
31238;SDS011;17871;31.584;74.450;2022-11-15T17:21:53;224.82;;;98.97;;
31238;SDS011;17871;31.584;74.450;2022-11-15T17:24:22;217.27;;;99.07;;
31238;SDS011;17871;31.584;74.450;2022-11-15T17:26:51;217.10;;;96.88;;
31238;SDS011;17871;31.584;74.450;2022-11-15T17:29:22;205.88;;;98.35;;
31238;SDS011;17871;31.584;74.450;2022-11-15T17:31:51;202.65;;;95.07;;
31238;SDS011;17871;31.584;74.450;2022-11-15T17:34:20;216.68;;;94.55;;
31238;SDS011;17871;31.584;74.450;2022-11-15T17:36:49;212.32;;;92.53;;
31238;SDS011;17871;31.584;74.450;2022-11-15T17:39:18;204.48;;;93.75;;